sensor_id;sensor_type;location;lat;lon;timestamp;temperature;humidity
45319;DHT22;31057;48.498;32.260;2022-10-18T00:01:54;3.30;99.90
45319;DHT22;31057;48.498;32.260;2022-10-18T00:04:56;3.20;99.90
45319;DHT22;31057;48.498;32.260;2022-10-18T00:07:58;3.00;99.90
45319;DHT22;31057;48.498;32.260;2022-10-18T00:10:59;2.90;99.90
45319;DHT22;31057;48.498;32.260;2022-10-18T00:14:01;2.80;99.90
45319;DHT22;31057;48.498;32.260;2022-10-18T00:17:03;2.60;99.90
45319;DHT22;31057;48.498;32.260;2022-10-18T00:20:05;2.60;99.90
45319;DHT22;31057;48.498;32.260;2022-10-18T00:23:07;2.70;99.90
45319;DHT22;31057;48.498;32.260;2022-10-18T00:26:13;2.60;99.90
45319;DHT22;31057;48.498;32.260;2022-10-18T00:29:15;2.70;99.90
45319;DHT22;31057;48.498;32.260;2022-10-18T00:32:17;2.70;99.90
45319;DHT22;31057;48.498;32.260;2022-10-18T00:35:19;2.70;99.90
45319;DHT22;31057;48.498;32.260;2022-10-18T00:38:20;3.20;99.90
45319;DHT22;31057;48.498;32.260;2022-10-18T00:41:26;3.20;99.90
45319;DHT22;31057;48.498;32.260;2022-10-18T00:47:30;2.70;99.90
45319;DHT22;31057;48.498;32.260;2022-10-18T00:50:33;2.80;99.90
45319;DHT22;31057;48.498;32.260;2022-10-18T00:53:35;3.10;99.90
45319;DHT22;31057;48.498;32.260;2022-10-18T00:56:37;3.00;99.90
45319;DHT22;31057;48.498;32.260;2022-10-18T00:59:39;2.80;99.90
45319;DHT22;31057;48.498;32.260;2022-10-18T01:02:42;2.90;99.90
45319;DHT22;31057;48.498;32.260;2022-10-18T01:05:45;2.90;99.90
45319;DHT22;31057;48.498;32.260;2022-10-18T01:09:04;2.90;99.90
45319;DHT22;31057;48.498;32.260;2022-10-18T01:15:18;2.80;99.90
45319;DHT22;31057;48.498;32.260;2022-10-18T01:18:26;2.80;99.90
45319;DHT22;31057;48.498;32.260;2022-10-18T01:24:45;2.80;99.90
45319;DHT22;31057;48.498;32.260;2022-10-18T01:31:19;2.60;99.90
45319;DHT22;31057;48.498;32.260;2022-10-18T01:34:22;2.60;99.90
45319;DHT22;31057;48.498;32.260;2022-10-18T01:37:24;2.50;99.90
45319;DHT22;31057;48.498;32.260;2022-10-18T01:40:27;2.50;99.90
45319;DHT22;31057;48.498;32.260;2022-10-18T01:43:30;2.60;99.90
45319;DHT22;31057;48.498;32.260;2022-10-18T01:46:33;2.60;99.90
45319;DHT22;31057;48.498;32.260;2022-10-18T01:49:35;2.70;99.90
45319;DHT22;31057;48.498;32.260;2022-10-18T01:52:49;2.50;99.90
45319;DHT22;31057;48.498;32.260;2022-10-18T01:55:56;2.50;99.90
45319;DHT22;31057;48.498;32.260;2022-10-18T02:08:27;2.20;99.90
45319;DHT22;31057;48.498;32.260;2022-10-18T02:11:31;2.10;99.90
45319;DHT22;31057;48.498;32.260;2022-10-18T02:14:34;2.00;99.90
45319;DHT22;31057;48.498;32.260;2022-10-18T02:17:36;2.00;99.90
45319;DHT22;31057;48.498;32.260;2022-10-18T02:20:38;2.10;99.90
45319;DHT22;31057;48.498;32.260;2022-10-18T02:23:40;2.20;99.90
45319;DHT22;31057;48.498;32.260;2022-10-18T02:26:43;2.20;99.90
45319;DHT22;31057;48.498;32.260;2022-10-18T02:29:45;2.00;99.90
45319;DHT22;31057;48.498;32.260;2022-10-18T02:35:54;1.90;99.90
45319;DHT22;31057;48.498;32.260;2022-10-18T02:38:59;2.00;99.90
45319;DHT22;31057;48.498;32.260;2022-10-18T02:42:03;1.90;99.90
45319;DHT22;31057;48.498;32.260;2022-10-18T02:45:08;1.90;99.90
45319;DHT22;31057;48.498;32.260;2022-10-18T02:48:10;1.90;99.90
45319;DHT22;31057;48.498;32.260;2022-10-18T02:51:12;2.00;99.90
45319;DHT22;31057;48.498;32.260;2022-10-18T02:54:14;2.00;99.90
45319;DHT22;31057;48.498;32.260;2022-10-18T02:57:16;2.00;99.90
45319;DHT22;31057;48.498;32.260;2022-10-18T03:00:17;1.90;99.90
45319;DHT22;31057;48.498;32.260;2022-10-18T03:03:20;2.00;99.90
45319;DHT22;31057;48.498;32.260;2022-10-18T03:06:22;2.00;99.90
45319;DHT22;31057;48.498;32.260;2022-10-18T03:09:24;2.00;99.90
45319;DHT22;31057;48.498;32.260;2022-10-18T03:12:25;1.80;99.90
45319;DHT22;31057;48.498;32.260;2022-10-18T03:15:27;1.80;99.90
45319;DHT22;31057;48.498;32.260;2022-10-18T03:18:29;1.80;99.90
45319;DHT22;31057;48.498;32.260;2022-10-18T03:21:31;1.80;99.90
45319;DHT22;31057;48.498;32.260;2022-10-18T03:24:32;1.70;99.90
45319;DHT22;31057;48.498;32.260;2022-10-18T03:27:34;1.80;99.90
45319;DHT22;31057;48.498;32.260;2022-10-18T03:30:36;1.80;99.90
45319;DHT22;31057;48.498;32.260;2022-10-18T03:33:39;1.80;99.90
45319;DHT22;31057;48.498;32.260;2022-10-18T03:36:41;1.70;99.90
45319;DHT22;31057;48.498;32.260;2022-10-18T03:39:43;1.60;99.90
45319;DHT22;31057;48.498;32.260;2022-10-18T03:42:45;1.60;99.90
45319;DHT22;31057;48.498;32.260;2022-10-18T03:45:46;1.50;99.90
45319;DHT22;31057;48.498;32.260;2022-10-18T03:48:48;1.50;99.90
45319;DHT22;31057;48.498;32.260;2022-10-18T03:51:50;1.50;99.90
45319;DHT22;31057;48.498;32.260;2022-10-18T03:54:53;1.60;99.90
45319;DHT22;31057;48.498;32.260;2022-10-18T03:57:56;1.60;99.90
45319;DHT22;31057;48.498;32.260;2022-10-18T04:00:58;1.60;99.90
45319;DHT22;31057;48.498;32.260;2022-10-18T04:03:59;1.60;99.90
45319;DHT22;31057;48.498;32.260;2022-10-18T04:07:01;1.70;99.90
45319;DHT22;31057;48.498;32.260;2022-10-18T04:10:03;1.80;99.90
45319;DHT22;31057;48.498;32.260;2022-10-18T04:13:05;1.90;99.90
45319;DHT22;31057;48.498;32.260;2022-10-18T04:16:09;1.90;99.90
45319;DHT22;31057;48.498;32.260;2022-10-18T04:19:11;1.90;99.90
45319;DHT22;31057;48.498;32.260;2022-10-18T04:22:13;1.90;99.90
45319;DHT22;31057;48.498;32.260;2022-10-18T04:25:15;1.90;99.90
45319;DHT22;31057;48.498;32.260;2022-10-18T04:28:16;1.90;99.90
45319;DHT22;31057;48.498;32.260;2022-10-18T04:31:19;2.00;99.90
45319;DHT22;31057;48.498;32.260;2022-10-18T04:34:20;2.10;99.90
45319;DHT22;31057;48.498;32.260;2022-10-18T04:36:50;2.20;99.90
45319;DHT22;31057;48.498;32.260;2022-10-18T04:38:52;2.20;99.90
45319;DHT22;31057;48.498;32.260;2022-10-18T04:40:54;2.20;99.90
45319;DHT22;31057;48.498;32.260;2022-10-18T04:42:55;2.20;99.90
45319;DHT22;31057;48.498;32.260;2022-10-18T04:45:14;2.20;99.90
45319;DHT22;31057;48.498;32.260;2022-10-18T04:47:16;2.30;99.90
45319;DHT22;31057;48.498;32.260;2022-10-18T04:49:18;2.30;99.90
45319;DHT22;31057;48.498;32.260;2022-10-18T04:51:20;2.50;99.90
45319;DHT22;31057;48.498;32.260;2022-10-18T04:53:22;2.60;99.90
45319;DHT22;31057;48.498;32.260;2022-10-18T04:55:24;2.60;99.90
45319;DHT22;31057;48.498;32.260;2022-10-18T04:57:26;2.60;99.90
45319;DHT22;31057;48.498;32.260;2022-10-18T04:59:28;2.60;99.90
45319;DHT22;31057;48.498;32.260;2022-10-18T05:01:30;2.60;99.90
45319;DHT22;31057;48.498;32.260;2022-10-18T05:03:32;2.60;99.90
45319;DHT22;31057;48.498;32.260;2022-10-18T05:05:34;2.70;99.90
45319;DHT22;31057;48.498;32.260;2022-10-18T05:07:56;2.80;99.90
45319;DHT22;31057;48.498;32.260;2022-10-18T05:09:57;3.00;99.90
45319;DHT22;31057;48.498;32.260;2022-10-18T05:11:59;3.10;99.90
45319;DHT22;31057;48.498;32.260;2022-10-18T05:14:01;3.20;99.90
45319;DHT22;31057;48.498;32.260;2022-10-18T05:16:04;3.30;99.90
45319;DHT22;31057;48.498;32.260;2022-10-18T05:18:06;3.40;99.90
45319;DHT22;31057;48.498;32.260;2022-10-18T05:20:08;3.40;99.90
45319;DHT22;31057;48.498;32.260;2022-10-18T05:22:10;3.50;99.90
45319;DHT22;31057;48.498;32.260;2022-10-18T05:24:12;3.60;99.90
45319;DHT22;31057;48.498;32.260;2022-10-18T05:26:14;3.70;99.90
45319;DHT22;31057;48.498;32.260;2022-10-18T05:28:16;3.90;99.90
45319;DHT22;31057;48.498;32.260;2022-10-18T05:30:39;4.00;99.90
45319;DHT22;31057;48.498;32.260;2022-10-18T05:32:41;4.10;99.90
45319;DHT22;31057;48.498;32.260;2022-10-18T05:34:43;4.20;99.90
45319;DHT22;31057;48.498;32.260;2022-10-18T05:36:45;4.30;99.90
45319;DHT22;31057;48.498;32.260;2022-10-18T05:38:47;4.40;99.90
45319;DHT22;31057;48.498;32.260;2022-10-18T05:40:49;4.40;99.90
45319;DHT22;31057;48.498;32.260;2022-10-18T05:42:51;4.40;99.90
45319;DHT22;31057;48.498;32.260;2022-10-18T05:44:53;4.50;99.90
45319;DHT22;31057;48.498;32.260;2022-10-18T05:46:55;4.60;99.90
45319;DHT22;31057;48.498;32.260;2022-10-18T05:48:57;4.80;99.90
45319;DHT22;31057;48.498;32.260;2022-10-18T05:50:59;4.90;99.90
45319;DHT22;31057;48.498;32.260;2022-10-18T05:53:01;5.00;99.90
45319;DHT22;31057;48.498;32.260;2022-10-18T05:55:13;5.20;99.90
45319;DHT22;31057;48.498;32.260;2022-10-18T05:57:15;5.30;99.90
45319;DHT22;31057;48.498;32.260;2022-10-18T05:59:17;5.30;99.90
45319;DHT22;31057;48.498;32.260;2022-10-18T06:01:19;5.40;99.90
45319;DHT22;31057;48.498;32.260;2022-10-18T06:03:21;5.60;99.90
45319;DHT22;31057;48.498;32.260;2022-10-18T06:05:23;5.70;99.90
45319;DHT22;31057;48.498;32.260;2022-10-18T06:07:25;5.80;99.90
45319;DHT22;31057;48.498;32.260;2022-10-18T06:09:27;5.90;99.90
45319;DHT22;31057;48.498;32.260;2022-10-18T06:11:30;6.10;99.90
45319;DHT22;31057;48.498;32.260;2022-10-18T06:13:31;6.30;99.90
45319;DHT22;31057;48.498;32.260;2022-10-18T06:15:34;6.40;99.90
45319;DHT22;31057;48.498;32.260;2022-10-18T06:17:36;6.50;99.90
45319;DHT22;31057;48.498;32.260;2022-10-18T06:19:38;6.50;99.90
45319;DHT22;31057;48.498;32.260;2022-10-18T06:21:41;6.70;99.90
45319;DHT22;31057;48.498;32.260;2022-10-18T06:23:50;6.80;99.90
45319;DHT22;31057;48.498;32.260;2022-10-18T06:25:52;7.00;99.90
45319;DHT22;31057;48.498;32.260;2022-10-18T06:27:54;7.10;99.90
45319;DHT22;31057;48.498;32.260;2022-10-18T06:29:56;7.30;99.90
45319;DHT22;31057;48.498;32.260;2022-10-18T06:31:58;7.60;99.90
45319;DHT22;31057;48.498;32.260;2022-10-18T06:34:00;7.60;99.90
45319;DHT22;31057;48.498;32.260;2022-10-18T06:36:06;7.70;99.90
45319;DHT22;31057;48.498;32.260;2022-10-18T06:38:08;7.70;99.90
45319;DHT22;31057;48.498;32.260;2022-10-18T06:40:10;7.80;99.90
45319;DHT22;31057;48.498;32.260;2022-10-18T06:42:12;8.00;99.90
45319;DHT22;31057;48.498;32.260;2022-10-18T06:44:15;8.10;99.90
45319;DHT22;31057;48.498;32.260;2022-10-18T06:46:18;8.10;99.90
45319;DHT22;31057;48.498;32.260;2022-10-18T06:48:20;8.40;99.90
45319;DHT22;31057;48.498;32.260;2022-10-18T06:50:22;8.50;99.90
45319;DHT22;31057;48.498;32.260;2022-10-18T06:52:24;8.70;99.90
45319;DHT22;31057;48.498;32.260;2022-10-18T06:54:26;8.90;99.90
45319;DHT22;31057;48.498;32.260;2022-10-18T06:56:28;9.10;99.90
45319;DHT22;31057;48.498;32.260;2022-10-18T06:58:30;9.20;99.90
45319;DHT22;31057;48.498;32.260;2022-10-18T07:00:32;9.20;99.90
45319;DHT22;31057;48.498;32.260;2022-10-18T07:02:34;9.20;99.90
45319;DHT22;31057;48.498;32.260;2022-10-18T07:04:38;9.30;99.90
45319;DHT22;31057;48.498;32.260;2022-10-18T07:06:39;9.40;99.90
45319;DHT22;31057;48.498;32.260;2022-10-18T07:08:42;9.60;99.90
45319;DHT22;31057;48.498;32.260;2022-10-18T07:10:51;9.80;99.90
45319;DHT22;31057;48.498;32.260;2022-10-18T07:12:54;10.00;99.90
45319;DHT22;31057;48.498;32.260;2022-10-18T07:15:16;10.10;99.90
45319;DHT22;31057;48.498;32.260;2022-10-18T07:17:18;10.30;99.90
45319;DHT22;31057;48.498;32.260;2022-10-18T07:19:20;10.50;99.90
45319;DHT22;31057;48.498;32.260;2022-10-18T07:21:24;10.70;99.90
45319;DHT22;31057;48.498;32.260;2022-10-18T07:23:26;10.90;99.90
45319;DHT22;31057;48.498;32.260;2022-10-18T07:25:28;11.00;99.90
45319;DHT22;31057;48.498;32.260;2022-10-18T07:27:38;11.10;99.90
45319;DHT22;31057;48.498;32.260;2022-10-18T07:29:41;11.30;99.90
45319;DHT22;31057;48.498;32.260;2022-10-18T07:31:43;11.60;99.90
45319;DHT22;31057;48.498;32.260;2022-10-18T07:33:44;11.80;99.90
45319;DHT22;31057;48.498;32.260;2022-10-18T07:35:47;11.90;99.90
45319;DHT22;31057;48.498;32.260;2022-10-18T07:37:48;12.10;99.90
45319;DHT22;31057;48.498;32.260;2022-10-18T07:39:50;12.70;99.90
45319;DHT22;31057;48.498;32.260;2022-10-18T07:41:52;13.00;99.90
45319;DHT22;31057;48.498;32.260;2022-10-18T07:43:54;13.00;99.90
45319;DHT22;31057;48.498;32.260;2022-10-18T07:45:59;13.30;99.90
45319;DHT22;31057;48.498;32.260;2022-10-18T07:48:01;13.30;99.90
45319;DHT22;31057;48.498;32.260;2022-10-18T07:50:03;13.40;99.90
45319;DHT22;31057;48.498;32.260;2022-10-18T07:52:05;13.60;99.90
45319;DHT22;31057;48.498;32.260;2022-10-18T07:54:07;13.80;99.90
45319;DHT22;31057;48.498;32.260;2022-10-18T07:56:15;14.00;99.90
45319;DHT22;31057;48.498;32.260;2022-10-18T07:58:17;14.00;99.90
45319;DHT22;31057;48.498;32.260;2022-10-18T08:00:19;14.20;99.90
45319;DHT22;31057;48.498;32.260;2022-10-18T08:02:23;14.30;99.90
45319;DHT22;31057;48.498;32.260;2022-10-18T08:04:25;14.30;99.90
45319;DHT22;31057;48.498;32.260;2022-10-18T08:06:26;14.40;99.90
45319;DHT22;31057;48.498;32.260;2022-10-18T08:08:29;14.60;99.90
45319;DHT22;31057;48.498;32.260;2022-10-18T08:10:31;14.60;99.90
45319;DHT22;31057;48.498;32.260;2022-10-18T08:12:34;14.70;99.90
45319;DHT22;31057;48.498;32.260;2022-10-18T08:14:36;14.90;99.90
45319;DHT22;31057;48.498;32.260;2022-10-18T08:16:38;15.00;99.90
45319;DHT22;31057;48.498;32.260;2022-10-18T08:18:40;15.00;99.90
45319;DHT22;31057;48.498;32.260;2022-10-18T08:20:43;14.90;99.90
45319;DHT22;31057;48.498;32.260;2022-10-18T08:22:49;14.90;99.90
45319;DHT22;31057;48.498;32.260;2022-10-18T08:24:51;14.90;99.90
45319;DHT22;31057;48.498;32.260;2022-10-18T08:26:53;15.00;99.90
45319;DHT22;31057;48.498;32.260;2022-10-18T08:28:55;15.30;99.90
45319;DHT22;31057;48.498;32.260;2022-10-18T08:31:18;15.30;99.50
45319;DHT22;31057;48.498;32.260;2022-10-18T08:33:21;15.30;99.20
45319;DHT22;31057;48.498;32.260;2022-10-18T08:35:23;15.40;99.50
45319;DHT22;31057;48.498;32.260;2022-10-18T08:37:25;15.40;97.90
45319;DHT22;31057;48.498;32.260;2022-10-18T08:39:27;15.30;97.80
45319;DHT22;31057;48.498;32.260;2022-10-18T08:43:41;15.50;97.80
45319;DHT22;31057;48.498;32.260;2022-10-18T08:45:44;15.70;96.60
45319;DHT22;31057;48.498;32.260;2022-10-18T08:47:47;15.70;96.30
45319;DHT22;31057;48.498;32.260;2022-10-18T08:49:53;15.90;96.10
45319;DHT22;31057;48.498;32.260;2022-10-18T08:51:57;16.00;96.30
45319;DHT22;31057;48.498;32.260;2022-10-18T08:54:05;16.10;96.10
45319;DHT22;31057;48.498;32.260;2022-10-18T08:56:11;16.00;94.60
45319;DHT22;31057;48.498;32.260;2022-10-18T08:58:25;16.00;95.30
45319;DHT22;31057;48.498;32.260;2022-10-18T09:00:30;16.20;94.80
45319;DHT22;31057;48.498;32.260;2022-10-18T09:09:16;16.40;92.30
45319;DHT22;31057;48.498;32.260;2022-10-18T09:16:10;16.40;91.70
45319;DHT22;31057;48.498;32.260;2022-10-18T09:20:52;16.70;92.20
45319;DHT22;31057;48.498;32.260;2022-10-18T09:22:58;16.70;91.50
45319;DHT22;31057;48.498;32.260;2022-10-18T09:25:23;16.70;91.40
45319;DHT22;31057;48.498;32.260;2022-10-18T09:27:38;16.80;91.00
45319;DHT22;31057;48.498;32.260;2022-10-18T09:30:19;16.90;90.50
45319;DHT22;31057;48.498;32.260;2022-10-18T09:36:51;16.90;90.50
45319;DHT22;31057;48.498;32.260;2022-10-18T09:38:57;16.90;91.00
45319;DHT22;31057;48.498;32.260;2022-10-18T09:41:07;17.20;89.40
45319;DHT22;31057;48.498;32.260;2022-10-18T09:43:20;17.10;87.00
45319;DHT22;31057;48.498;32.260;2022-10-18T09:45:44;17.30;88.00
45319;DHT22;31057;48.498;32.260;2022-10-18T09:50:02;17.10;87.70
45319;DHT22;31057;48.498;32.260;2022-10-18T09:52:11;17.10;87.10
45319;DHT22;31057;48.498;32.260;2022-10-18T09:54:31;17.20;86.00
45319;DHT22;31057;48.498;32.260;2022-10-18T09:56:39;17.30;86.10
45319;DHT22;31057;48.498;32.260;2022-10-18T09:58:47;17.30;86.10
45319;DHT22;31057;48.498;32.260;2022-10-18T10:00:51;17.20;85.50
45319;DHT22;31057;48.498;32.260;2022-10-18T10:02:54;17.40;85.70
45319;DHT22;31057;48.498;32.260;2022-10-18T10:04:56;17.60;85.50
45319;DHT22;31057;48.498;32.260;2022-10-18T10:06:59;17.60;84.50
45319;DHT22;31057;48.498;32.260;2022-10-18T10:09:05;17.70;85.10
45319;DHT22;31057;48.498;32.260;2022-10-18T10:11:37;17.60;82.70
45319;DHT22;31057;48.498;32.260;2022-10-18T10:13:40;17.60;81.60
45319;DHT22;31057;48.498;32.260;2022-10-18T10:15:55;17.60;82.20
45319;DHT22;31057;48.498;32.260;2022-10-18T10:18:02;17.60;80.20
45319;DHT22;31057;48.498;32.260;2022-10-18T10:20:19;17.70;79.90
45319;DHT22;31057;48.498;32.260;2022-10-18T10:22:40;17.70;79.30
45319;DHT22;31057;48.498;32.260;2022-10-18T10:24:48;17.70;79.40
45319;DHT22;31057;48.498;32.260;2022-10-18T10:26:58;17.80;79.90
45319;DHT22;31057;48.498;32.260;2022-10-18T10:29:00;18.00;79.30
45319;DHT22;31057;48.498;32.260;2022-10-18T10:33:36;18.10;77.20
45319;DHT22;31057;48.498;32.260;2022-10-18T10:35:40;17.90;77.20
45319;DHT22;31057;48.498;32.260;2022-10-18T10:37:55;17.90;77.30
45319;DHT22;31057;48.498;32.260;2022-10-18T10:40:22;18.00;76.90
45319;DHT22;31057;48.498;32.260;2022-10-18T10:42:29;18.10;74.70
45319;DHT22;31057;48.498;32.260;2022-10-18T10:44:35;18.20;74.40
45319;DHT22;31057;48.498;32.260;2022-10-18T10:46:37;18.10;74.10
45319;DHT22;31057;48.498;32.260;2022-10-18T10:51:06;18.20;75.70
45319;DHT22;31057;48.498;32.260;2022-10-18T10:55:32;18.10;74.60
45319;DHT22;31057;48.498;32.260;2022-10-18T10:57:36;18.20;75.50
45319;DHT22;31057;48.498;32.260;2022-10-18T10:59:41;18.20;76.10
45319;DHT22;31057;48.498;32.260;2022-10-18T11:01:45;18.20;76.40
45319;DHT22;31057;48.498;32.260;2022-10-18T11:03:53;18.30;76.50
45319;DHT22;31057;48.498;32.260;2022-10-18T11:05:56;18.30;76.70
45319;DHT22;31057;48.498;32.260;2022-10-18T11:08:02;18.20;77.10
45319;DHT22;31057;48.498;32.260;2022-10-18T11:10:14;18.20;75.90
45319;DHT22;31057;48.498;32.260;2022-10-18T11:14:31;18.50;77.20
45319;DHT22;31057;48.498;32.260;2022-10-18T11:16:41;18.50;77.20
45319;DHT22;31057;48.498;32.260;2022-10-18T11:18:52;18.40;75.60
45319;DHT22;31057;48.498;32.260;2022-10-18T11:21:07;18.40;77.00
45319;DHT22;31057;48.498;32.260;2022-10-18T11:23:14;18.50;76.10
45319;DHT22;31057;48.498;32.260;2022-10-18T11:25:16;18.50;76.50
45319;DHT22;31057;48.498;32.260;2022-10-18T11:27:29;18.50;75.10
45319;DHT22;31057;48.498;32.260;2022-10-18T11:36:53;18.40;76.50
45319;DHT22;31057;48.498;32.260;2022-10-18T11:43:51;18.50;75.00
45319;DHT22;31057;48.498;32.260;2022-10-18T11:46:16;18.60;73.70
45319;DHT22;31057;48.498;32.260;2022-10-18T11:53:10;18.30;73.70
45319;DHT22;31057;48.498;32.260;2022-10-18T12:04:48;18.60;74.80
45319;DHT22;31057;48.498;32.260;2022-10-18T12:07:14;18.60;72.90
45319;DHT22;31057;48.498;32.260;2022-10-18T12:09:35;18.60;74.00
45319;DHT22;31057;48.498;32.260;2022-10-18T12:11:42;18.40;73.50
45319;DHT22;31057;48.498;32.260;2022-10-18T12:13:54;18.40;73.80
45319;DHT22;31057;48.498;32.260;2022-10-18T12:15:59;18.30;74.40
45319;DHT22;31057;48.498;32.260;2022-10-18T12:18:06;18.40;73.40
45319;DHT22;31057;48.498;32.260;2022-10-18T12:22:35;18.40;73.10
45319;DHT22;31057;48.498;32.260;2022-10-18T12:24:39;18.30;73.30
45319;DHT22;31057;48.498;32.260;2022-10-18T12:26:41;18.60;73.90
45319;DHT22;31057;48.498;32.260;2022-10-18T12:28:46;18.40;74.10
45319;DHT22;31057;48.498;32.260;2022-10-18T12:31:05;18.50;71.70
45319;DHT22;31057;48.498;32.260;2022-10-18T12:33:16;18.50;73.20
45319;DHT22;31057;48.498;32.260;2022-10-18T12:35:33;18.40;72.30
45319;DHT22;31057;48.498;32.260;2022-10-18T12:42:23;18.30;73.00
45319;DHT22;31057;48.498;32.260;2022-10-18T12:44:34;18.50;73.70
45319;DHT22;31057;48.498;32.260;2022-10-18T12:49:10;18.40;72.70
45319;DHT22;31057;48.498;32.260;2022-10-18T12:51:18;18.30;72.30
45319;DHT22;31057;48.498;32.260;2022-10-18T12:53:25;18.40;71.60
45319;DHT22;31057;48.498;32.260;2022-10-18T12:55:31;18.40;71.50
45319;DHT22;31057;48.498;32.260;2022-10-18T12:58:00;18.40;71.20
45319;DHT22;31057;48.498;32.260;2022-10-18T13:00:03;18.30;69.80
45319;DHT22;31057;48.498;32.260;2022-10-18T13:07:16;18.20;67.10
45319;DHT22;31057;48.498;32.260;2022-10-18T13:09:20;18.30;68.20
45319;DHT22;31057;48.498;32.260;2022-10-18T13:11:33;18.40;70.30
45319;DHT22;31057;48.498;32.260;2022-10-18T13:16:02;18.30;69.30
45319;DHT22;31057;48.498;32.260;2022-10-18T13:18:24;18.10;69.40
45319;DHT22;31057;48.498;32.260;2022-10-18T13:23:00;18.10;69.20
45319;DHT22;31057;48.498;32.260;2022-10-18T13:25:19;18.10;70.80
45319;DHT22;31057;48.498;32.260;2022-10-18T13:32:45;18.00;73.30
45319;DHT22;31057;48.498;32.260;2022-10-18T13:34:48;17.90;71.10
45319;DHT22;31057;48.498;32.260;2022-10-18T13:39:19;17.70;73.00
45319;DHT22;31057;48.498;32.260;2022-10-18T13:42:18;17.60;73.20
45319;DHT22;31057;48.498;32.260;2022-10-18T13:44:10;17.60;74.50
45319;DHT22;31057;48.498;32.260;2022-10-18T13:46:12;17.60;74.30
45319;DHT22;31057;48.498;32.260;2022-10-18T13:48:42;17.60;74.20
45319;DHT22;31057;48.498;32.260;2022-10-18T13:50:37;17.60;74.50
45319;DHT22;31057;48.498;32.260;2022-10-18T13:52:54;17.50;74.80
45319;DHT22;31057;48.498;32.260;2022-10-18T14:02:36;17.20;77.20
45319;DHT22;31057;48.498;32.260;2022-10-18T14:05:12;17.00;78.10
45319;DHT22;31057;48.498;32.260;2022-10-18T14:07:27;17.00;79.10
45319;DHT22;31057;48.498;32.260;2022-10-18T14:09:54;16.90;79.50
45319;DHT22;31057;48.498;32.260;2022-10-18T14:12:07;16.90;80.20
45319;DHT22;31057;48.498;32.260;2022-10-18T14:14:30;16.80;80.60
45319;DHT22;31057;48.498;32.260;2022-10-18T14:16:48;17.20;80.30
45319;DHT22;31057;48.498;32.260;2022-10-18T14:18:54;18.20;77.90
45319;DHT22;31057;48.498;32.260;2022-10-18T14:21:06;18.40;77.20
45319;DHT22;31057;48.498;32.260;2022-10-18T14:23:18;18.80;76.20
45319;DHT22;31057;48.498;32.260;2022-10-18T14:25:26;18.90;75.80
45319;DHT22;31057;48.498;32.260;2022-10-18T14:27:30;18.80;76.10
45319;DHT22;31057;48.498;32.260;2022-10-18T14:29:33;18.60;77.20
45319;DHT22;31057;48.498;32.260;2022-10-18T14:31:36;18.40;77.80
45319;DHT22;31057;48.498;32.260;2022-10-18T14:35:43;18.00;80.30
45319;DHT22;31057;48.498;32.260;2022-10-18T14:37:47;17.80;81.00
45319;DHT22;31057;48.498;32.260;2022-10-18T14:39:49;17.50;82.00
45319;DHT22;31057;48.498;32.260;2022-10-18T14:41:53;17.30;82.90
45319;DHT22;31057;48.498;32.260;2022-10-18T14:44:19;17.00;83.90
45319;DHT22;31057;48.498;32.260;2022-10-18T14:46:24;16.00;86.70
45319;DHT22;31057;48.498;32.260;2022-10-18T14:48:31;15.50;89.10
45319;DHT22;31057;48.498;32.260;2022-10-18T14:50:33;15.10;90.70
45319;DHT22;31057;48.498;32.260;2022-10-18T14:52:35;14.80;91.20
45319;DHT22;31057;48.498;32.260;2022-10-18T14:54:37;14.70;91.70
45319;DHT22;31057;48.498;32.260;2022-10-18T14:56:39;14.60;92.40
45319;DHT22;31057;48.498;32.260;2022-10-18T14:58:41;14.30;92.60
45319;DHT22;31057;48.498;32.260;2022-10-18T15:00:45;14.20;93.00
45319;DHT22;31057;48.498;32.260;2022-10-18T15:02:49;14.10;93.20
45319;DHT22;31057;48.498;32.260;2022-10-18T15:05:04;14.10;93.30
45319;DHT22;31057;48.498;32.260;2022-10-18T15:07:12;13.80;93.70
45319;DHT22;31057;48.498;32.260;2022-10-18T15:09:20;13.60;94.20
45319;DHT22;31057;48.498;32.260;2022-10-18T15:11:23;13.50;94.60
45319;DHT22;31057;48.498;32.260;2022-10-18T15:13:26;13.50;94.50
45319;DHT22;31057;48.498;32.260;2022-10-18T15:15:30;13.40;94.60
45319;DHT22;31057;48.498;32.260;2022-10-18T15:17:33;13.40;94.60
45319;DHT22;31057;48.498;32.260;2022-10-18T15:19:36;13.40;94.70
45319;DHT22;31057;48.498;32.260;2022-10-18T15:21:57;13.30;94.80
45319;DHT22;31057;48.498;32.260;2022-10-18T15:24:28;13.40;94.70
45319;DHT22;31057;48.498;32.260;2022-10-18T15:26:30;13.30;94.90
45319;DHT22;31057;48.498;32.260;2022-10-18T15:28:35;13.30;95.00
45319;DHT22;31057;48.498;32.260;2022-10-18T15:30:40;13.00;95.10
45319;DHT22;31057;48.498;32.260;2022-10-18T15:32:58;13.00;95.20
45319;DHT22;31057;48.498;32.260;2022-10-18T15:35:41;13.10;95.30
45319;DHT22;31057;48.498;32.260;2022-10-18T15:37:44;13.00;95.30
45319;DHT22;31057;48.498;32.260;2022-10-18T15:39:46;13.00;95.40
45319;DHT22;31057;48.498;32.260;2022-10-18T15:41:56;12.80;95.70
45319;DHT22;31057;48.498;32.260;2022-10-18T15:44:27;12.70;95.70
45319;DHT22;31057;48.498;32.260;2022-10-18T15:46:30;12.60;96.20
45319;DHT22;31057;48.498;32.260;2022-10-18T15:50:40;12.40;96.30
45319;DHT22;31057;48.498;32.260;2022-10-18T15:52:43;12.40;96.60
45319;DHT22;31057;48.498;32.260;2022-10-18T15:54:45;12.20;97.10
45319;DHT22;31057;48.498;32.260;2022-10-18T15:56:47;12.30;97.00
45319;DHT22;31057;48.498;32.260;2022-10-18T15:58:49;12.20;96.90
45319;DHT22;31057;48.498;32.260;2022-10-18T16:00:55;12.10;97.20
45319;DHT22;31057;48.498;32.260;2022-10-18T16:02:58;12.20;97.20
45319;DHT22;31057;48.498;32.260;2022-10-18T16:05:00;12.10;97.30
45319;DHT22;31057;48.498;32.260;2022-10-18T16:07:03;12.10;97.40
45319;DHT22;31057;48.498;32.260;2022-10-18T16:09:05;12.00;97.60
45319;DHT22;31057;48.498;32.260;2022-10-18T16:11:19;12.00;97.60
45319;DHT22;31057;48.498;32.260;2022-10-18T16:13:21;12.00;98.20
45319;DHT22;31057;48.498;32.260;2022-10-18T16:15:23;11.90;98.80
45319;DHT22;31057;48.498;32.260;2022-10-18T16:17:25;11.80;98.30
45319;DHT22;31057;48.498;32.260;2022-10-18T16:19:27;11.70;98.30
45319;DHT22;31057;48.498;32.260;2022-10-18T16:21:32;11.80;98.30
45319;DHT22;31057;48.498;32.260;2022-10-18T16:23:34;11.80;98.50
45319;DHT22;31057;48.498;32.260;2022-10-18T16:25:36;11.80;98.60
45319;DHT22;31057;48.498;32.260;2022-10-18T16:27:38;11.90;98.10
45319;DHT22;31057;48.498;32.260;2022-10-18T16:29:40;11.90;98.00
45319;DHT22;31057;48.498;32.260;2022-10-18T16:31:42;11.80;98.30
45319;DHT22;31057;48.498;32.260;2022-10-18T16:33:45;11.80;98.10